Mount Weather, Virginia
Current Conditions -  °F | °C
As of 8:55 AM on Saturday 22 Nov 2014 (Local Time) from KOKV Reporting Station
Clear Clear  
Wind Chill: 25°   Ceiling: Unl
Heat Index: 30°   Visibility: 10mi
Dew Point: 12°   Wind: 5mph
Humidity: 47%   Direction: 170°S
Pressure: 30.43"   Gusts: NA
Location:  39.1657°N, 77.9844°W
Report Text: KOKV 221355Z AUTO 17004KT 10SM CLR M01/M11 A3043 RMK AO2
Loading
Personal Weather Stations






























Interactive Weather Map New forecast layout! Learn more

10-Day Weather Forecast

Advertisements
Track Severe Weather on mobile